sensor_id;sensor_type;location;lat;lon;timestamp;temperature;humidity
1686;DHT22;840;47.980;7.830;2023-04-09T00:02:15;9.90;99.90
1686;DHT22;840;47.980;7.830;2023-04-09T00:04:42;9.80;99.90
1686;DHT22;840;47.980;7.830;2023-04-09T00:07:10;9.70;99.90
1686;DHT22;840;47.980;7.830;2023-04-09T00:09:37;9.60;99.90
1686;DHT22;840;47.980;7.830;2023-04-09T00:12:04;9.50;99.90
1686;DHT22;840;47.980;7.830;2023-04-09T00:14:31;9.50;99.90
1686;DHT22;840;47.980;7.830;2023-04-09T00:16:58;9.40;99.90
1686;DHT22;840;47.980;7.830;2023-04-09T00:19:25;9.40;99.90
1686;DHT22;840;47.980;7.830;2023-04-09T00:21:51;9.30;99.90
1686;DHT22;840;47.980;7.830;2023-04-09T00:24:19;9.20;99.90
1686;DHT22;840;47.980;7.830;2023-04-09T00:26:46;9.20;99.90
1686;DHT22;840;47.980;7.830;2023-04-09T00:29:14;9.00;99.90
1686;DHT22;840;47.980;7.830;2023-04-09T00:31:41;9.00;99.90
1686;DHT22;840;47.980;7.830;2023-04-09T00:34:08;8.90;99.90
1686;DHT22;840;47.980;7.830;2023-04-09T00:36:35;8.90;99.90
1686;DHT22;840;47.980;7.830;2023-04-09T00:39:02;8.90;99.90
1686;DHT22;840;47.980;7.830;2023-04-09T00:41:30;8.80;99.90
1686;DHT22;840;47.980;7.830;2023-04-09T00:43:57;8.70;99.90
1686;DHT22;840;47.980;7.830;2023-04-09T00:46:24;8.60;99.90
1686;DHT22;840;47.980;7.830;2023-04-09T00:48:51;8.50;99.90
1686;DHT22;840;47.980;7.830;2023-04-09T00:51:18;8.50;99.90
1686;DHT22;840;47.980;7.830;2023-04-09T00:53:45;8.40;99.90
1686;DHT22;840;47.980;7.830;2023-04-09T00:56:14;8.30;99.90
1686;DHT22;840;47.980;7.830;2023-04-09T00:58:44;8.20;99.90
1686;DHT22;840;47.980;7.830;2023-04-09T01:01:11;8.10;99.90
1686;DHT22;840;47.980;7.830;2023-04-09T01:03:38;8.10;99.90
1686;DHT22;840;47.980;7.830;2023-04-09T01:06:08;8.20;99.90
1686;DHT22;840;47.980;7.830;2023-04-09T01:08:46;8.20;99.90
1686;DHT22;840;47.980;7.830;2023-04-09T01:11:22;8.20;99.90
1686;DHT22;840;47.980;7.830;2023-04-09T01:13:57;8.20;99.90
1686;DHT22;840;47.980;7.830;2023-04-09T01:16:28;8.20;99.90
1686;DHT22;840;47.980;7.830;2023-04-09T01:18:59;8.10;99.90
1686;DHT22;840;47.980;7.830;2023-04-09T01:21:30;8.10;99.90
1686;DHT22;840;47.980;7.830;2023-04-09T01:24:08;8.10;99.90
1686;DHT22;840;47.980;7.830;2023-04-09T01:26:47;8.20;99.90
1686;DHT22;840;47.980;7.830;2023-04-09T01:29:22;8.20;99.90
1686;DHT22;840;47.980;7.830;2023-04-09T01:31:50;8.20;99.90
1686;DHT22;840;47.980;7.830;2023-04-09T01:34:19;8.10;99.90
1686;DHT22;840;47.980;7.830;2023-04-09T01:36:50;8.10;99.90
1686;DHT22;840;47.980;7.830;2023-04-09T01:39:18;8.00;99.90
1686;DHT22;840;47.980;7.830;2023-04-09T01:41:45;7.90;99.90
1686;DHT22;840;47.980;7.830;2023-04-09T01:44:13;7.90;99.90
1686;DHT22;840;47.980;7.830;2023-04-09T01:46:41;7.80;99.90
1686;DHT22;840;47.980;7.830;2023-04-09T01:49:09;7.80;99.90
1686;DHT22;840;47.980;7.830;2023-04-09T01:51:36;7.80;99.90
1686;DHT22;840;47.980;7.830;2023-04-09T01:54:04;7.70;99.90
1686;DHT22;840;47.980;7.830;2023-04-09T01:56:39;7.70;99.90
1686;DHT22;840;47.980;7.830;2023-04-09T01:59:20;7.70;99.90
1686;DHT22;840;47.980;7.830;2023-04-09T02:01:52;7.60;99.90
1686;DHT22;840;47.980;7.830;2023-04-09T02:04:23;7.60;99.90
1686;DHT22;840;47.980;7.830;2023-04-09T02:06:57;7.60;99.90
1686;DHT22;840;47.980;7.830;2023-04-09T02:09:28;7.50;99.90
1686;DHT22;840;47.980;7.830;2023-04-09T02:11:57;7.50;99.90
1686;DHT22;840;47.980;7.830;2023-04-09T02:14:25;7.40;99.90
1686;DHT22;840;47.980;7.830;2023-04-09T02:16:54;7.40;99.90
1686;DHT22;840;47.980;7.830;2023-04-09T02:19:21;7.30;99.90
1686;DHT22;840;47.980;7.830;2023-04-09T02:21:48;7.30;99.90
1686;DHT22;840;47.980;7.830;2023-04-09T02:24:15;7.20;99.90
1686;DHT22;840;47.980;7.830;2023-04-09T02:26:42;7.20;99.90
1686;DHT22;840;47.980;7.830;2023-04-09T02:29:09;7.20;99.90
1686;DHT22;840;47.980;7.830;2023-04-09T02:31:36;7.20;99.90
1686;DHT22;840;47.980;7.830;2023-04-09T02:34:04;7.10;99.90
1686;DHT22;840;47.980;7.830;2023-04-09T02:36:31;7.10;99.90
1686;DHT22;840;47.980;7.830;2023-04-09T02:38:58;7.00;99.90
1686;DHT22;840;47.980;7.830;2023-04-09T02:41:25;7.00;99.90
1686;DHT22;840;47.980;7.830;2023-04-09T02:43:52;7.00;99.90
1686;DHT22;840;47.980;7.830;2023-04-09T02:46:18;6.90;99.90
1686;DHT22;840;47.980;7.830;2023-04-09T02:48:45;6.90;99.90
1686;DHT22;840;47.980;7.830;2023-04-09T02:51:15;6.90;99.90
1686;DHT22;840;47.980;7.830;2023-04-09T02:53:42;6.90;99.90
1686;DHT22;840;47.980;7.830;2023-04-09T02:56:10;6.90;99.90
1686;DHT22;840;47.980;7.830;2023-04-09T02:58:36;6.90;99.90
1686;DHT22;840;47.980;7.830;2023-04-09T03:01:04;6.90;99.90
1686;DHT22;840;47.980;7.830;2023-04-09T03:03:31;6.90;99.90
1686;DHT22;840;47.980;7.830;2023-04-09T03:05:58;6.90;99.90
1686;DHT22;840;47.980;7.830;2023-04-09T03:08:26;6.80;99.90
1686;DHT22;840;47.980;7.830;2023-04-09T03:10:52;6.80;99.90
1686;DHT22;840;47.980;7.830;2023-04-09T03:13:19;6.70;99.90
1686;DHT22;840;47.980;7.830;2023-04-09T03:15:50;6.70;99.90
1686;DHT22;840;47.980;7.830;2023-04-09T03:18:17;6.70;99.90
1686;DHT22;840;47.980;7.830;2023-04-09T03:20:44;6.60;99.90
1686;DHT22;840;47.980;7.830;2023-04-09T03:23:11;6.60;99.90
1686;DHT22;840;47.980;7.830;2023-04-09T03:25:40;6.60;99.90
1686;DHT22;840;47.980;7.830;2023-04-09T03:28:07;6.60;99.90
1686;DHT22;840;47.980;7.830;2023-04-09T03:30:33;6.60;99.90
1686;DHT22;840;47.980;7.830;2023-04-09T03:33:00;6.60;99.90
1686;DHT22;840;47.980;7.830;2023-04-09T03:35:27;6.60;99.90
1686;DHT22;840;47.980;7.830;2023-04-09T03:37:54;6.60;99.90
1686;DHT22;840;47.980;7.830;2023-04-09T03:40:21;6.50;99.90
1686;DHT22;840;47.980;7.830;2023-04-09T03:42:49;6.50;99.90
1686;DHT22;840;47.980;7.830;2023-04-09T03:45:16;6.50;99.90
1686;DHT22;840;47.980;7.830;2023-04-09T03:47:43;6.50;99.90
1686;DHT22;840;47.980;7.830;2023-04-09T03:50:10;6.50;99.90
1686;DHT22;840;47.980;7.830;2023-04-09T03:52:37;6.50;99.90
1686;DHT22;840;47.980;7.830;2023-04-09T03:55:04;6.50;99.90
1686;DHT22;840;47.980;7.830;2023-04-09T03:57:33;6.40;99.90
1686;DHT22;840;47.980;7.830;2023-04-09T04:00:01;6.40;99.90
1686;DHT22;840;47.980;7.830;2023-04-09T04:02:28;6.40;99.90
1686;DHT22;840;47.980;7.830;2023-04-09T04:04:57;6.40;99.90
1686;DHT22;840;47.980;7.830;2023-04-09T04:07:25;6.40;99.90
1686;DHT22;840;47.980;7.830;2023-04-09T04:09:51;6.40;99.90
1686;DHT22;840;47.980;7.830;2023-04-09T04:12:18;6.40;99.90
1686;DHT22;840;47.980;7.830;2023-04-09T04:14:45;6.40;99.90
1686;DHT22;840;47.980;7.830;2023-04-09T04:17:14;6.30;99.90
1686;DHT22;840;47.980;7.830;2023-04-09T04:19:41;6.30;99.90
1686;DHT22;840;47.980;7.830;2023-04-09T04:22:08;6.30;99.90
1686;DHT22;840;47.980;7.830;2023-04-09T04:24:34;6.30;99.90
1686;DHT22;840;47.980;7.830;2023-04-09T04:27:01;6.30;99.90
1686;DHT22;840;47.980;7.830;2023-04-09T04:29:28;6.30;99.90
1686;DHT22;840;47.980;7.830;2023-04-09T04:31:55;6.30;99.90
1686;DHT22;840;47.980;7.830;2023-04-09T04:34:23;6.30;99.90
1686;DHT22;840;47.980;7.830;2023-04-09T04:36:50;6.30;99.90
1686;DHT22;840;47.980;7.830;2023-04-09T04:39:16;6.30;99.90
1686;DHT22;840;47.980;7.830;2023-04-09T04:41:43;6.30;99.90
1686;DHT22;840;47.980;7.830;2023-04-09T04:44:10;6.30;99.90
1686;DHT22;840;47.980;7.830;2023-04-09T04:46:37;6.20;99.90
1686;DHT22;840;47.980;7.830;2023-04-09T04:49:03;6.20;99.90
1686;DHT22;840;47.980;7.830;2023-04-09T04:51:31;6.20;99.90
1686;DHT22;840;47.980;7.830;2023-04-09T04:53:58;6.20;99.90
1686;DHT22;840;47.980;7.830;2023-04-09T04:56:25;6.20;99.90
1686;DHT22;840;47.980;7.830;2023-04-09T04:58:52;6.20;99.90
1686;DHT22;840;47.980;7.830;2023-04-09T05:01:19;6.20;99.90
1686;DHT22;840;47.980;7.830;2023-04-09T05:03:48;6.20;99.90
1686;DHT22;840;47.980;7.830;2023-04-09T05:06:15;6.20;99.90
1686;DHT22;840;47.980;7.830;2023-04-09T05:08:43;6.20;99.90
1686;DHT22;840;47.980;7.830;2023-04-09T05:11:11;6.20;99.90
1686;DHT22;840;47.980;7.830;2023-04-09T05:13:39;6.20;99.90
1686;DHT22;840;47.980;7.830;2023-04-09T05:16:06;6.20;99.90
1686;DHT22;840;47.980;7.830;2023-04-09T05:18:33;6.20;99.90
1686;DHT22;840;47.980;7.830;2023-04-09T05:21:00;6.20;99.90
1686;DHT22;840;47.980;7.830;2023-04-09T05:23:27;6.20;99.90
1686;DHT22;840;47.980;7.830;2023-04-09T05:25:55;6.20;99.90
1686;DHT22;840;47.980;7.830;2023-04-09T05:28:22;6.20;99.90
1686;DHT22;840;47.980;7.830;2023-04-09T05:30:49;6.20;99.90
1686;DHT22;840;47.980;7.830;2023-04-09T05:33:16;6.30;99.90
1686;DHT22;840;47.980;7.830;2023-04-09T05:35:42;6.40;99.90
1686;DHT22;840;47.980;7.830;2023-04-09T05:38:09;6.60;99.90
1686;DHT22;840;47.980;7.830;2023-04-09T05:40:37;6.60;99.90
1686;DHT22;840;47.980;7.830;2023-04-09T05:43:08;6.70;99.90
1686;DHT22;840;47.980;7.830;2023-04-09T05:45:34;6.70;99.90
1686;DHT22;840;47.980;7.830;2023-04-09T05:48:01;6.60;99.90
1686;DHT22;840;47.980;7.830;2023-04-09T05:50:28;6.60;99.90
1686;DHT22;840;47.980;7.830;2023-04-09T05:52:55;6.60;99.90
1686;DHT22;840;47.980;7.830;2023-04-09T05:55:22;6.60;99.90
1686;DHT22;840;47.980;7.830;2023-04-09T05:57:51;6.60;99.90
1686;DHT22;840;47.980;7.830;2023-04-09T06:00:19;6.70;99.90
1686;DHT22;840;47.980;7.830;2023-04-09T06:02:46;6.70;99.90
1686;DHT22;840;47.980;7.830;2023-04-09T06:05:13;6.70;99.90
1686;DHT22;840;47.980;7.830;2023-04-09T06:07:40;6.80;99.90
1686;DHT22;840;47.980;7.830;2023-04-09T06:10:07;6.80;99.90
1686;DHT22;840;47.980;7.830;2023-04-09T06:12:35;6.90;99.90
1686;DHT22;840;47.980;7.830;2023-04-09T06:15:02;7.00;99.90
1686;DHT22;840;47.980;7.830;2023-04-09T06:17:31;7.10;99.90
1686;DHT22;840;47.980;7.830;2023-04-09T06:19:58;7.20;99.90
1686;DHT22;840;47.980;7.830;2023-04-09T06:22:25;7.30;99.90
1686;DHT22;840;47.980;7.830;2023-04-09T06:24:52;7.40;99.90
1686;DHT22;840;47.980;7.830;2023-04-09T06:27:22;7.50;99.90
1686;DHT22;840;47.980;7.830;2023-04-09T06:29:49;7.60;99.90
1686;DHT22;840;47.980;7.830;2023-04-09T06:32:15;7.70;99.90
1686;DHT22;840;47.980;7.830;2023-04-09T06:34:44;7.80;99.90
1686;DHT22;840;47.980;7.830;2023-04-09T06:37:12;7.90;99.90
1686;DHT22;840;47.980;7.830;2023-04-09T06:39:39;8.00;99.90
1686;DHT22;840;47.980;7.830;2023-04-09T06:42:06;8.10;99.90
1686;DHT22;840;47.980;7.830;2023-04-09T06:44:33;8.10;99.90
1686;DHT22;840;47.980;7.830;2023-04-09T06:47:00;8.20;99.90
1686;DHT22;840;47.980;7.830;2023-04-09T06:49:27;8.20;99.90
1686;DHT22;840;47.980;7.830;2023-04-09T06:51:55;8.30;99.90
1686;DHT22;840;47.980;7.830;2023-04-09T06:54:22;8.30;99.90
1686;DHT22;840;47.980;7.830;2023-04-09T06:56:48;8.30;99.90
1686;DHT22;840;47.980;7.830;2023-04-09T06:59:16;8.40;99.90
1686;DHT22;840;47.980;7.830;2023-04-09T07:01:43;8.40;99.90
1686;DHT22;840;47.980;7.830;2023-04-09T07:04:10;8.40;99.90
1686;DHT22;840;47.980;7.830;2023-04-09T07:06:37;8.40;99.90
1686;DHT22;840;47.980;7.830;2023-04-09T07:09:06;8.50;99.90
1686;DHT22;840;47.980;7.830;2023-04-09T07:11:33;8.60;99.90
1686;DHT22;840;47.980;7.830;2023-04-09T07:14:00;8.60;99.90
1686;DHT22;840;47.980;7.830;2023-04-09T07:16:26;8.70;99.90
1686;DHT22;840;47.980;7.830;2023-04-09T07:18:53;8.80;99.90
1686;DHT22;840;47.980;7.830;2023-04-09T07:21:20;8.80;99.90
1686;DHT22;840;47.980;7.830;2023-04-09T07:23:47;8.90;99.90
1686;DHT22;840;47.980;7.830;2023-04-09T07:26:15;8.90;99.90
1686;DHT22;840;47.980;7.830;2023-04-09T07:28:42;8.90;99.90
1686;DHT22;840;47.980;7.830;2023-04-09T07:31:10;9.00;99.90
1686;DHT22;840;47.980;7.830;2023-04-09T07:33:37;9.10;99.90
1686;DHT22;840;47.980;7.830;2023-04-09T07:36:04;9.20;99.90
1686;DHT22;840;47.980;7.830;2023-04-09T07:38:33;9.20;99.90
1686;DHT22;840;47.980;7.830;2023-04-09T07:40:59;9.20;99.90
1686;DHT22;840;47.980;7.830;2023-04-09T07:43:28;9.30;99.90
1686;DHT22;840;47.980;7.830;2023-04-09T07:45:55;9.30;99.90
1686;DHT22;840;47.980;7.830;2023-04-09T07:48:22;9.30;99.90
1686;DHT22;840;47.980;7.830;2023-04-09T07:50:49;9.40;99.90
1686;DHT22;840;47.980;7.830;2023-04-09T07:53:17;9.40;99.90
1686;DHT22;840;47.980;7.830;2023-04-09T07:55:43;9.40;99.90
1686;DHT22;840;47.980;7.830;2023-04-09T07:58:11;9.40;99.90
1686;DHT22;840;47.980;7.830;2023-04-09T08:00:39;9.40;99.90
1686;DHT22;840;47.980;7.830;2023-04-09T08:03:06;9.50;99.90
1686;DHT22;840;47.980;7.830;2023-04-09T08:05:32;9.50;99.90
1686;DHT22;840;47.980;7.830;2023-04-09T08:08:00;9.40;99.90
1686;DHT22;840;47.980;7.830;2023-04-09T08:10:27;9.50;99.90
1686;DHT22;840;47.980;7.830;2023-04-09T08:12:54;9.50;99.90
1686;DHT22;840;47.980;7.830;2023-04-09T08:15:21;9.60;99.90
1686;DHT22;840;47.980;7.830;2023-04-09T08:17:49;9.60;99.90
1686;DHT22;840;47.980;7.830;2023-04-09T08:20:16;9.70;99.90
1686;DHT22;840;47.980;7.830;2023-04-09T08:22:43;9.70;99.90
1686;DHT22;840;47.980;7.830;2023-04-09T08:25:11;9.80;99.90
1686;DHT22;840;47.980;7.830;2023-04-09T08:27:37;9.80;99.90
1686;DHT22;840;47.980;7.830;2023-04-09T08:30:06;9.80;99.90
1686;DHT22;840;47.980;7.830;2023-04-09T08:32:32;9.90;99.90
1686;DHT22;840;47.980;7.830;2023-04-09T08:35:02;9.90;99.90
1686;DHT22;840;47.980;7.830;2023-04-09T08:37:29;10.00;99.90
1686;DHT22;840;47.980;7.830;2023-04-09T08:39:56;10.10;99.90
1686;DHT22;840;47.980;7.830;2023-04-09T08:42:24;10.00;99.90
1686;DHT22;840;47.980;7.830;2023-04-09T08:44:51;10.00;99.90
1686;DHT22;840;47.980;7.830;2023-04-09T08:47:18;10.10;99.90
1686;DHT22;840;47.980;7.830;2023-04-09T08:49:45;10.20;99.90
1686;DHT22;840;47.980;7.830;2023-04-09T08:52:16;10.20;99.90
1686;DHT22;840;47.980;7.830;2023-04-09T08:54:46;10.30;99.90
1686;DHT22;840;47.980;7.830;2023-04-09T08:57:12;10.40;99.90
1686;DHT22;840;47.980;7.830;2023-04-09T08:59:40;10.50;99.90
1686;DHT22;840;47.980;7.830;2023-04-09T09:02:07;10.50;99.90
1686;DHT22;840;47.980;7.830;2023-04-09T09:04:44;10.60;99.90
1686;DHT22;840;47.980;7.830;2023-04-09T09:07:12;10.70;99.90
1686;DHT22;840;47.980;7.830;2023-04-09T09:09:53;10.80;99.90
1686;DHT22;840;47.980;7.830;2023-04-09T09:12:31;10.90;99.90
1686;DHT22;840;47.980;7.830;2023-04-09T09:14:58;11.00;99.90
1686;DHT22;840;47.980;7.830;2023-04-09T09:17:24;11.10;99.90
1686;DHT22;840;47.980;7.830;2023-04-09T09:19:51;11.20;99.90
1686;DHT22;840;47.980;7.830;2023-04-09T09:22:18;11.30;99.90
1686;DHT22;840;47.980;7.830;2023-04-09T09:24:48;11.30;99.90
1686;DHT22;840;47.980;7.830;2023-04-09T09:27:32;11.40;99.80
1686;DHT22;840;47.980;7.830;2023-04-09T09:30:02;11.40;99.60
1686;DHT22;840;47.980;7.830;2023-04-09T09:32:30;11.50;99.50
1686;DHT22;840;47.980;7.830;2023-04-09T09:34:59;11.60;99.10
1686;DHT22;840;47.980;7.830;2023-04-09T09:37:27;11.70;97.80
1686;DHT22;840;47.980;7.830;2023-04-09T09:39:54;11.70;98.20
1686;DHT22;840;47.980;7.830;2023-04-09T09:42:21;11.80;98.00
1686;DHT22;840;47.980;7.830;2023-04-09T09:44:49;11.80;98.40
1686;DHT22;840;47.980;7.830;2023-04-09T09:47:17;11.90;98.00
1686;DHT22;840;47.980;7.830;2023-04-09T09:49:46;11.90;97.80
1686;DHT22;840;47.980;7.830;2023-04-09T09:52:15;12.10;97.70
1686;DHT22;840;47.980;7.830;2023-04-09T09:54:46;12.10;95.30
1686;DHT22;840;47.980;7.830;2023-04-09T09:57:15;12.10;96.10
1686;DHT22;840;47.980;7.830;2023-04-09T10:00:00;12.20;95.80
1686;DHT22;840;47.980;7.830;2023-04-09T10:02:33;12.30;94.40
1686;DHT22;840;47.980;7.830;2023-04-09T10:05:03;12.30;95.60
1686;DHT22;840;47.980;7.830;2023-04-09T10:07:31;12.40;95.70
1686;DHT22;840;47.980;7.830;2023-04-09T10:10:00;12.40;94.70
1686;DHT22;840;47.980;7.830;2023-04-09T10:12:28;12.40;94.20
1686;DHT22;840;47.980;7.830;2023-04-09T10:14:55;12.50;94.80
1686;DHT22;840;47.980;7.830;2023-04-09T10:17:30;12.50;94.50
1686;DHT22;840;47.980;7.830;2023-04-09T10:20:03;12.60;94.20
1686;DHT22;840;47.980;7.830;2023-04-09T10:22:32;12.70;94.90
1686;DHT22;840;47.980;7.830;2023-04-09T10:25:01;12.70;93.70
1686;DHT22;840;47.980;7.830;2023-04-09T10:27:29;12.80;93.00
1686;DHT22;840;47.980;7.830;2023-04-09T10:29:55;12.80;93.30
1686;DHT22;840;47.980;7.830;2023-04-09T10:32:24;12.90;94.00
1686;DHT22;840;47.980;7.830;2023-04-09T10:34:56;12.90;93.50
1686;DHT22;840;47.980;7.830;2023-04-09T10:37:24;13.00;93.50
1686;DHT22;840;47.980;7.830;2023-04-09T10:39:52;13.10;93.40
1686;DHT22;840;47.980;7.830;2023-04-09T10:42:20;13.10;93.00
1686;DHT22;840;47.980;7.830;2023-04-09T10:45:04;13.10;93.60
1686;DHT22;840;47.980;7.830;2023-04-09T10:47:32;13.10;93.50
1686;DHT22;840;47.980;7.830;2023-04-09T10:50:13;13.20;91.90
1686;DHT22;840;47.980;7.830;2023-04-09T10:52:40;13.20;91.70
1686;DHT22;840;47.980;7.830;2023-04-09T10:55:08;13.30;92.80
1686;DHT22;840;47.980;7.830;2023-04-09T10:57:36;13.30;93.90
1686;DHT22;840;47.980;7.830;2023-04-09T11:00:03;13.40;92.30
1686;DHT22;840;47.980;7.830;2023-04-09T11:02:57;13.40;93.00
1686;DHT22;840;47.980;7.830;2023-04-09T11:05:31;13.40;93.90
1686;DHT22;840;47.980;7.830;2023-04-09T11:08:04;13.50;94.40
1686;DHT22;840;47.980;7.830;2023-04-09T11:10:32;13.60;92.60
1686;DHT22;840;47.980;7.830;2023-04-09T11:12:59;13.50;93.20
1686;DHT22;840;47.980;7.830;2023-04-09T11:15:26;13.60;92.60
1686;DHT22;840;47.980;7.830;2023-04-09T11:17:53;13.60;93.10
1686;DHT22;840;47.980;7.830;2023-04-09T11:20:22;13.70;93.30
1686;DHT22;840;47.980;7.830;2023-04-09T11:22:51;13.70;92.20
1686;DHT22;840;47.980;7.830;2023-04-09T11:25:19;13.70;93.20
1686;DHT22;840;47.980;7.830;2023-04-09T11:27:46;13.80;93.60
1686;DHT22;840;47.980;7.830;2023-04-09T11:30:13;13.80;93.00
1686;DHT22;840;47.980;7.830;2023-04-09T11:32:40;13.90;93.10
1686;DHT22;840;47.980;7.830;2023-04-09T11:35:10;13.90;93.30
1686;DHT22;840;47.980;7.830;2023-04-09T11:37:39;14.00;92.90
1686;DHT22;840;47.980;7.830;2023-04-09T11:40:13;14.00;92.80
1686;DHT22;840;47.980;7.830;2023-04-09T11:42:41;14.00;94.10
1686;DHT22;840;47.980;7.830;2023-04-09T11:45:14;14.10;91.90
1686;DHT22;840;47.980;7.830;2023-04-09T11:47:42;14.10;92.50
1686;DHT22;840;47.980;7.830;2023-04-09T11:50:12;14.20;91.10
1686;DHT22;840;47.980;7.830;2023-04-09T11:52:39;14.30;91.90
1686;DHT22;840;47.980;7.830;2023-04-09T11:55:09;14.30;90.00
1686;DHT22;840;47.980;7.830;2023-04-09T11:57:40;14.30;90.50
1686;DHT22;840;47.980;7.830;2023-04-09T12:00:10;14.40;92.50
1686;DHT22;840;47.980;7.830;2023-04-09T12:02:38;14.50;94.00
1686;DHT22;840;47.980;7.830;2023-04-09T12:05:10;14.50;92.00
1686;DHT22;840;47.980;7.830;2023-04-09T12:07:39;14.60;92.70
1686;DHT22;840;47.980;7.830;2023-04-09T12:10:09;14.70;93.20
1686;DHT22;840;47.980;7.830;2023-04-09T12:12:39;14.80;92.40
1686;DHT22;840;47.980;7.830;2023-04-09T12:15:19;14.80;91.20
1686;DHT22;840;47.980;7.830;2023-04-09T12:17:50;14.90;91.90
1686;DHT22;840;47.980;7.830;2023-04-09T12:20:39;15.00;90.90
1686;DHT22;840;47.980;7.830;2023-04-09T12:23:08;15.10;91.40
1686;DHT22;840;47.980;7.830;2023-04-09T12:25:37;15.10;91.20
1686;DHT22;840;47.980;7.830;2023-04-09T12:28:06;15.10;90.10
1686;DHT22;840;47.980;7.830;2023-04-09T12:30:33;15.20;89.40
1686;DHT22;840;47.980;7.830;2023-04-09T12:33:01;15.10;85.70
1686;DHT22;840;47.980;7.830;2023-04-09T12:35:28;15.10;89.50
1686;DHT22;840;47.980;7.830;2023-04-09T12:37:56;15.40;90.80
1686;DHT22;840;47.980;7.830;2023-04-09T12:40:23;15.90;89.80
1686;DHT22;840;47.980;7.830;2023-04-09T12:42:52;16.70;87.60
1686;DHT22;840;47.980;7.830;2023-04-09T12:45:20;17.70;84.60
1686;DHT22;840;47.980;7.830;2023-04-09T12:47:47;18.70;82.20
1686;DHT22;840;47.980;7.830;2023-04-09T12:50:14;19.60;77.40
1686;DHT22;840;47.980;7.830;2023-04-09T12:52:41;20.40;72.00
1686;DHT22;840;47.980;7.830;2023-04-09T12:55:09;21.10;72.30
1686;DHT22;840;47.980;7.830;2023-04-09T12:57:36;21.40;68.90
1686;DHT22;840;47.980;7.830;2023-04-09T13:00:06;21.60;67.70
1686;DHT22;840;47.980;7.830;2023-04-09T13:02:34;22.00;65.50
1686;DHT22;840;47.980;7.830;2023-04-09T13:05:01;22.10;63.90
1686;DHT22;840;47.980;7.830;2023-04-09T13:07:28;22.20;60.80
1686;DHT22;840;47.980;7.830;2023-04-09T13:09:56;22.00;58.10
1686;DHT22;840;47.980;7.830;2023-04-09T13:12:22;21.90;57.70
1686;DHT22;840;47.980;7.830;2023-04-09T13:14:51;21.80;58.10
1686;DHT22;840;47.980;7.830;2023-04-09T13:17:20;21.70;57.20
1686;DHT22;840;47.980;7.830;2023-04-09T13:19:47;21.30;55.80
1686;DHT22;840;47.980;7.830;2023-04-09T13:22:14;21.10;57.00
1686;DHT22;840;47.980;7.830;2023-04-09T13:24:40;20.50;54.40
1686;DHT22;840;47.980;7.830;2023-04-09T13:27:07;20.30;58.50
1686;DHT22;840;47.980;7.830;2023-04-09T13:29:35;20.20;54.50
1686;DHT22;840;47.980;7.830;2023-04-09T13:32:02;20.10;54.70
1686;DHT22;840;47.980;7.830;2023-04-09T13:34:32;20.00;56.10
1686;DHT22;840;47.980;7.830;2023-04-09T13:37:00;19.80;54.60
1686;DHT22;840;47.980;7.830;2023-04-09T13:39:26;19.60;55.10
1686;DHT22;840;47.980;7.830;2023-04-09T13:41:53;19.40;55.60
1686;DHT22;840;47.980;7.830;2023-04-09T13:44:21;19.30;56.20
1686;DHT22;840;47.980;7.830;2023-04-09T13:46:48;19.40;58.80
1686;DHT22;840;47.980;7.830;2023-04-09T13:49:14;19.40;59.20
1686;DHT22;840;47.980;7.830;2023-04-09T13:51:43;19.50;57.10
1686;DHT22;840;47.980;7.830;2023-04-09T13:54:10;19.60;58.10
1686;DHT22;840;47.980;7.830;2023-04-09T13:56:37;19.80;57.50
1686;DHT22;840;47.980;7.830;2023-04-09T13:59:03;20.00;56.50
1686;DHT22;840;47.980;7.830;2023-04-09T14:01:30;20.10;58.50
1686;DHT22;840;47.980;7.830;2023-04-09T14:03:57;20.40;59.30
1686;DHT22;840;47.980;7.830;2023-04-09T14:06:24;20.60;58.30
1686;DHT22;840;47.980;7.830;2023-04-09T14:08:53;20.80;58.10
1686;DHT22;840;47.980;7.830;2023-04-09T14:11:20;21.00;56.70
1686;DHT22;840;47.980;7.830;2023-04-09T14:13:47;21.20;58.60
1686;DHT22;840;47.980;7.830;2023-04-09T14:16:13;21.40;55.90
1686;DHT22;840;47.980;7.830;2023-04-09T14:18:40;21.50;54.30
1686;DHT22;840;47.980;7.830;2023-04-09T14:21:07;21.50;52.80
1686;DHT22;840;47.980;7.830;2023-04-09T14:23:34;21.60;52.90
1686;DHT22;840;47.980;7.830;2023-04-09T14:26:03;21.60;53.30
1686;DHT22;840;47.980;7.830;2023-04-09T14:28:31;21.60;52.90
1686;DHT22;840;47.980;7.830;2023-04-09T14:30:58;21.60;51.40
1686;DHT22;840;47.980;7.830;2023-04-09T14:33:25;21.50;52.80
1686;DHT22;840;47.980;7.830;2023-04-09T14:35:52;21.30;52.50
1686;DHT22;840;47.980;7.830;2023-04-09T14:38:19;21.30;53.20
1686;DHT22;840;47.980;7.830;2023-04-09T14:40:45;21.40;52.80
1686;DHT22;840;47.980;7.830;2023-04-09T14:43:14;21.60;52.70
1686;DHT22;840;47.980;7.830;2023-04-09T14:45:41;21.70;52.30
1686;DHT22;840;47.980;7.830;2023-04-09T14:48:08;21.90;53.20
1686;DHT22;840;47.980;7.830;2023-04-09T14:50:35;22.00;51.20
1686;DHT22;840;47.980;7.830;2023-04-09T14:53:05;22.20;50.60
1686;DHT22;840;47.980;7.830;2023-04-09T14:55:32;22.50;51.60
1686;DHT22;840;47.980;7.830;2023-04-09T14:57:59;22.70;50.80
1686;DHT22;840;47.980;7.830;2023-04-09T15:00:29;22.70;50.20
1686;DHT22;840;47.980;7.830;2023-04-09T15:02:57;22.60;50.50
1686;DHT22;840;47.980;7.830;2023-04-09T15:05:24;22.60;49.40
1686;DHT22;840;47.980;7.830;2023-04-09T15:07:51;22.50;49.70
1686;DHT22;840;47.980;7.830;2023-04-09T15:10:18;22.50;49.50
1686;DHT22;840;47.980;7.830;2023-04-09T15:12:45;22.50;49.30
1686;DHT22;840;47.980;7.830;2023-04-09T15:15:11;22.60;49.10
1686;DHT22;840;47.980;7.830;2023-04-09T15:17:40;22.70;48.40
1686;DHT22;840;47.980;7.830;2023-04-09T15:20:07;22.90;49.30
1686;DHT22;840;47.980;7.830;2023-04-09T15:22:34;23.00;48.30
1686;DHT22;840;47.980;7.830;2023-04-09T15:25:01;22.90;47.70
1686;DHT22;840;47.980;7.830;2023-04-09T15:27:28;22.80;48.10
1686;DHT22;840;47.980;7.830;2023-04-09T15:29:55;22.70;47.90
1686;DHT22;840;47.980;7.830;2023-04-09T15:32:22;22.70;46.60
1686;DHT22;840;47.980;7.830;2023-04-09T15:34:50;22.70;47.30
1686;DHT22;840;47.980;7.830;2023-04-09T15:37:17;22.80;48.00
1686;DHT22;840;47.980;7.830;2023-04-09T15:39:44;23.00;47.80
1686;DHT22;840;47.980;7.830;2023-04-09T15:42:11;23.00;47.10
1686;DHT22;840;47.980;7.830;2023-04-09T15:44:38;23.10;48.30
1686;DHT22;840;47.980;7.830;2023-04-09T15:47:05;23.30;47.00
1686;DHT22;840;47.980;7.830;2023-04-09T15:49:33;23.10;45.70
1686;DHT22;840;47.980;7.830;2023-04-09T15:52:02;23.10;45.30
1686;DHT22;840;47.980;7.830;2023-04-09T15:54:30;23.10;47.00
1686;DHT22;840;47.980;7.830;2023-04-09T15:56:56;23.20;47.30
1686;DHT22;840;47.980;7.830;2023-04-09T15:59:24;23.20;46.60
1686;DHT22;840;47.980;7.830;2023-04-09T16:01:51;23.10;45.80
1686;DHT22;840;47.980;7.830;2023-04-09T16:04:18;22.90;45.40
1686;DHT22;840;47.980;7.830;2023-04-09T16:06:45;22.60;45.30
1686;DHT22;840;47.980;7.830;2023-04-09T16:09:13;22.50;45.50
1686;DHT22;840;47.980;7.830;2023-04-09T16:11:39;22.30;45.00
1686;DHT22;840;47.980;7.830;2023-04-09T16:14:06;21.90;45.60
1686;DHT22;840;47.980;7.830;2023-04-09T16:16:34;21.80;46.60
1686;DHT22;840;47.980;7.830;2023-04-09T16:19:01;21.70;47.30
1686;DHT22;840;47.980;7.830;2023-04-09T16:21:28;21.40;46.90
1686;DHT22;840;47.980;7.830;2023-04-09T16:23:55;21.10;47.60
1686;DHT22;840;47.980;7.830;2023-04-09T16:26:23;20.70;48.10
1686;DHT22;840;47.980;7.830;2023-04-09T16:28:50;20.40;48.60
1686;DHT22;840;47.980;7.830;2023-04-09T16:31:17;20.10;48.60
1686;DHT22;840;47.980;7.830;2023-04-09T16:33:45;19.80;48.90